Time;durP1;ratioP1;P1;durP2;ratioP2;P2;SDS_P1;SDS_P2;PMS_P1;PMS_P2;Temp;Humidity;BMP_temperature;BMP_pressure;BME280_temperature;BME280_humidity;BME280_pressure;Samples;Min_cycle;Max_cycle;Signal;HPM_P1;HPM_P2
2022/05/20 00:00:45;;;;;;;8.65;2.90;;;;;;;20.04;81.36;96883.00;5067167;28;20220;-91
2022/05/20 00:03:11;;;;;;;6.30;3.10;;;;;;;20.10;80.62;96874.09;5066941;28;20596;-90
2022/05/20 00:05:38;;;;;;;7.75;3.45;;;;;;;20.14;80.37;96869.94;5066937;28;20211;-90
2022/05/20 00:08:07;;;;;;;9.50;3.33;;;;;;;20.23;80.40;96866.75;5067178;28;20211;-91
2022/05/20 00:10:34;;;;;;;4.25;2.92;;;;;;;20.17;80.16;96866.00;5066982;28;20232;-90
2022/05/20 00:13:01;;;;;;;4.70;3.00;;;;;;;20.12;80.34;96872.00;5066568;28;20258;-90
2022/05/20 00:15:30;;;;;;;8.52;3.30;;;;;;;20.28;79.86;96874.13;5066569;28;20215;-90
2022/05/20 00:17:57;;;;;;;7.50;3.05;;;;;;;20.34;79.17;96874.06;5066413;28;20204;-90
2022/05/20 00:20:26;;;;;;;7.78;3.10;;;;;;;20.31;79.41;96873.69;5066734;28;20221;-90
2022/05/20 00:22:53;;;;;;;7.82;3.03;;;;;;;20.32;78.90;96872.66;5066082;28;20306;-90
2022/05/20 00:28:07;;;;;;;5.32;2.85;;;;;;;20.40;78.98;96877.69;5066583;28;20589;-90
2022/05/20 00:30:35;;;;;;;8.73;3.33;;;;;;;20.37;79.24;96891.53;5065964;28;20227;-90
2022/05/20 00:33:01;;;;;;;8.43;3.40;;;;;;;20.18;80.15;96885.31;5065483;28;20208;-90
2022/05/20 00:35:28;;;;;;;6.07;3.25;;;;;;;20.20;79.93;96893.97;5066314;28;20208;-91
2022/05/20 00:37:54;;;;;;;8.35;2.95;;;;;;;20.19;80.31;96888.84;5067338;28;20212;-90
2022/05/20 00:40:25;;;;;;;9.95;3.42;;;;;;;20.26;80.17;96887.75;5066450;28;20230;-90
2022/05/20 00:42:51;;;;;;;4.82;2.80;;;;;;;20.05;80.75;96884.66;5066909;28;20577;-90
2022/05/20 00:45:19;;;;;;;13.52;3.42;;;;;;;20.07;80.66;96879.88;5066608;28;20688;-91
2022/05/20 00:47:45;;;;;;;6.05;3.20;;;;;;;19.95;80.98;96881.66;5067317;28;20200;-90
2022/05/20 00:50:16;;;;;;;4.18;2.80;;;;;;;20.05;81.10;96879.28;5066469;28;20583;-91
2022/05/20 00:52:49;;;;;;;5.82;3.20;;;;;;;20.10;81.21;96876.78;5066908;28;20562;-91
2022/05/20 00:55:19;;;;;;;7.10;2.97;;;;;;;20.05;81.35;96879.28;5066854;28;20219;-90
2022/05/20 00:57:50;;;;;;;5.40;3.00;;;;;;;19.93;81.90;96873.00;5066209;28;20566;-91
2022/05/20 01:00:20;;;;;;;5.95;3.30;;;;;;;19.95;81.02;96876.28;5066120;28;20566;-90
2022/05/20 01:02:48;;;;;;;5.38;3.13;;;;;;;19.96;80.95;96864.56;5066192;28;20232;-90
2022/05/20 01:05:19;;;;;;;6.65;3.10;;;;;;;20.03;80.70;96854.59;5066703;28;20679;-90
2022/05/20 01:07:46;;;;;;;6.57;3.28;;;;;;;19.82;81.40;96860.31;5066469;28;20201;-90
2022/05/20 01:10:13;;;;;;;12.18;3.50;;;;;;;19.80;81.69;96854.38;5066578;28;20499;-91
2022/05/20 01:12:40;;;;;;;5.82;3.15;;;;;;;19.72;81.58;96853.84;5065897;28;20197;-90
2022/05/20 01:15:09;;;;;;;6.78;3.35;;;;;;;19.82;81.98;96851.50;5065977;28;20693;-91
2022/05/20 01:17:37;;;;;;;7.22;3.10;;;;;;;19.79;82.03;96850.06;5066490;28;20204;-90
2022/05/20 01:20:09;;;;;;;5.20;2.90;;;;;;;19.74;82.53;96846.41;5066081;28;20657;-90
2022/05/20 01:22:38;;;;;;;8.48;3.40;;;;;;;19.74;82.47;96838.38;5066034;28;20220;-90
2022/05/20 01:25:06;;;;;;;7.40;3.10;;;;;;;19.70;82.36;96840.69;5065741;28;20204;-90
2022/05/20 01:27:32;;;;;;;12.90;3.28;;;;;;;19.57;82.69;96843.44;5065366;28;20622;-90
2022/05/20 01:29:59;;;;;;;6.97;3.17;;;;;;;19.72;81.98;96835.13;5066318;28;20227;-90
2022/05/20 01:32:25;;;;;;;6.13;3.38;;;;;;;19.62;82.14;96830.25;5065488;28;20212;-90
2022/05/20 01:34:52;;;;;;;5.47;3.15;;;;;;;19.70;82.03;96843.38;5065498;28;20227;-89
2022/05/20 01:37:18;;;;;;;11.88;3.22;;;;;;;19.67;81.97;96833.09;5065573;28;20208;-90
2022/05/20 01:39:46;;;;;;;9.20;3.20;;;;;;;19.79;82.32;96838.53;5065745;28;20227;-90
2022/05/20 01:42:17;;;;;;;9.93;3.25;;;;;;;19.64;82.95;96838.06;5064843;28;20315;-90
2022/05/20 01:44:53;;;;;;;5.22;3.30;;;;;;;19.73;82.40;96837.56;5065849;28;20656;-90
2022/05/20 01:47:26;;;;;;;6.32;3.20;;;;;;;19.65;83.33;96829.84;5068365;28;20208;-90
2022/05/20 01:50:02;;;;;;;6.55;3.38;;;;;;;19.57;83.19;96838.09;5068935;28;20200;-90
2022/05/20 01:52:34;;;;;;;7.45;3.30;;;;;;;19.47;83.89;96841.50;5068502;28;20291;-90
2022/05/20 01:55:07;;;;;;;6.53;3.65;;;;;;;19.41;84.22;96828.97;5068713;28;20204;-90
2022/05/20 01:57:38;;;;;;;7.78;3.65;;;;;;;19.49;83.46;96834.06;5068740;28;20200;-91
2022/05/20 02:00:09;;;;;;;7.03;3.15;;;;;;;19.31;84.52;96836.66;5069081;28;20686;-89
2022/05/20 02:02:42;;;;;;;7.68;3.42;;;;;;;19.42;84.19;96827.97;5069071;28;20208;-91
2022/05/20 02:05:14;;;;;;;7.18;3.63;;;;;;;19.42;84.28;96822.59;5069935;28;20207;-90
2022/05/20 02:07:45;;;;;;;5.40;3.05;;;;;;;19.25;84.52;96825.00;5069515;28;20232;-90
2022/05/20 02:10:20;;;;;;;6.70;3.17;;;;;;;19.35;84.38;96824.53;5069654;28;20594;-91
2022/05/20 02:12:51;;;;;;;7.85;3.30;;;;;;;19.43;84.31;96826.94;5069367;28;20196;-92
2022/05/20 02:15:22;;;;;;;12.25;3.58;;;;;;;19.45;84.20;96816.81;5070275;28;20204;-91
2022/05/20 02:17:54;;;;;;;5.75;3.30;;;;;;;19.38;84.52;96816.88;5070532;28;20201;-90
2022/05/20 02:20:27;;;;;;;7.13;3.78;;;;;;;19.28;84.91;96826.41;5069457;28;20713;-91
2022/05/20 02:22:56;;;;;;;7.70;3.67;;;;;;;19.16;85.70;96823.63;5069669;28;20210;-91
2022/05/20 02:25:29;;;;;;;6.78;3.15;;;;;;;19.04;86.54;96819.13;5069787;28;20278;-91
2022/05/20 02:28:00;;;;;;;6.50;3.25;;;;;;;19.01;87.13;96824.91;5069595;28;20208;-90
2022/05/20 02:30:31;;;;;;;8.43;3.35;;;;;;;18.80;87.96;96816.41;5069707;28;20640;-91
2022/05/20 02:33:02;;;;;;;16.00;3.47;;;;;;;18.65;88.43;96818.56;5070241;28;20196;-90
2022/05/20 02:35:29;;;;;;;7.38;3.92;;;;;;;18.59;88.93;96804.19;5071377;28;20322;-91
2022/05/20 02:38:04;;;;;;;5.50;3.70;;;;;;;18.64;89.14;96817.72;5070141;28;20204;-90
2022/05/20 02:40:32;;;;;;;7.03;3.67;;;;;;;18.50;90.10;96826.00;5071022;28;20614;-90
2022/05/20 02:42:59;;;;;;;6.55;3.78;;;;;;;18.52;89.32;96826.59;5069311;28;20203;-90
2022/05/20 02:45:25;;;;;;;10.05;3.80;;;;;;;18.48;89.04;96817.38;5070421;28;20212;-91
2022/05/20 02:47:52;;;;;;;8.00;3.67;;;;;;;18.39;89.66;96811.47;5070576;28;20252;-90
2022/05/20 02:50:19;;;;;;;6.95;3.75;;;;;;;18.36;90.07;96817.22;5070044;28;20306;-90
2022/05/20 02:52:45;;;;;;;7.25;3.55;;;;;;;18.20;90.98;96821.38;5070226;28;20434;-90
2022/05/20 02:55:12;;;;;;;7.07;3.95;;;;;;;18.21;91.24;96813.16;5069255;28;20204;-90
2022/05/20 02:57:41;;;;;;;7.25;3.58;;;;;;;18.11;92.10;96820.75;5067667;28;20196;-90
2022/05/20 03:05:39;;;;;;;9.00;3.95;;;;;;;18.11;91.96;96825.25;5069088;28;20242;-90
2022/05/20 03:08:06;;;;;;;7.75;3.90;;;;;;;18.05;92.38;96826.09;5068960;28;20208;-90
2022/05/20 03:10:33;;;;;;;6.57;4.15;;;;;;;18.12;91.55;96826.91;5068020;28;20230;-90
2022/05/20 03:13:01;;;;;;;8.25;4.15;;;;;;;18.21;91.89;96829.16;5068260;28;20211;-90
2022/05/20 03:15:28;;;;;;;8.38;4.03;;;;;;;18.09;92.50;96827.34;5068324;28;20609;-90
2022/05/20 03:17:55;;;;;;;5.93;3.92;;;;;;;17.93;92.56;96828.56;5068036;28;20204;-91
2022/05/20 03:20:22;;;;;;;12.27;3.88;;;;;;;17.91;91.08;96829.84;5067574;28;20709;-91
2022/05/20 03:22:48;;;;;;;7.05;3.60;;;;;;;17.76;90.60;96834.56;5067673;28;20196;-90
2022/05/20 03:25:15;;;;;;;8.30;3.50;;;;;;;17.89;90.90;96835.34;5067636;28;20228;-90
2022/05/20 03:27:42;;;;;;;6.93;4.05;;;;;;;17.97;90.77;96837.81;5067381;28;20200;-90
2022/05/20 03:30:12;;;;;;;7.75;3.85;;;;;;;17.93;90.97;96843.78;5067370;28;20207;-90
2022/05/20 03:32:38;;;;;;;5.47;3.47;;;;;;;17.91;90.29;96830.66;5066709;28;20207;-90
2022/05/20 03:35:05;;;;;;;8.85;4.00;;;;;;;17.83;90.52;96833.53;5067331;28;20197;-90
2022/05/20 03:37:32;;;;;;;4.72;3.47;;;;;;;17.73;90.68;96834.97;5067145;28;20318;-90
2022/05/20 03:39:59;;;;;;;5.07;3.25;;;;;;;17.22;90.36;96833.09;5066830;28;20200;-90
2022/05/20 03:42:26;;;;;;;4.63;3.13;;;;;;;17.15;89.97;96840.25;5066185;28;20229;-90
2022/05/20 03:44:53;;;;;;;7.20;3.35;;;;;;;17.16;92.41;96841.91;5067063;28;20306;-90
2022/05/20 03:47:21;;;;;;;7.95;3.53;;;;;;;17.37;92.30;96842.56;5066655;28;20207;-91
2022/05/20 03:49:48;;;;;;;10.60;4.20;;;;;;;17.34;91.78;96840.31;5066804;28;20665;-91
2022/05/20 03:52:15;;;;;;;5.38;3.72;;;;;;;17.48;92.98;96841.94;5066987;28;20230;-90
2022/05/20 03:54:42;;;;;;;7.28;3.65;;;;;;;17.27;91.93;96842.16;5066489;28;20207;-90
2022/05/20 03:57:09;;;;;;;7.80;3.92;;;;;;;17.37;90.65;96842.56;5065993;28;20211;-91
2022/05/20 03:59:36;;;;;;;9.52;3.50;;;;;;;17.36;91.53;96848.94;5066669;28;20500;-90
2022/05/20 04:02:05;;;;;;;10.95;4.03;;;;;;;17.25;93.05;96846.84;5068162;28;20232;-90
2022/05/20 04:04:36;;;;;;;7.10;3.85;;;;;;;17.27;93.99;96855.47;5066996;28;20208;-90
2022/05/20 04:07:07;;;;;;;7.70;3.70;;;;;;;17.38;93.40;96848.72;5067894;28;20208;-90
2022/05/20 04:09:34;;;;;;;10.95;3.65;;;;;;;17.28;92.52;96858.94;5067102;28;20210;-91
2022/05/20 04:12:03;;;;;;;8.45;3.78;;;;;;;17.32;91.66;96849.53;5066938;28;20594;-90
2022/05/20 04:14:31;;;;;;;8.55;3.65;;;;;;;17.46;90.26;96857.31;5065877;28;20196;-90
2022/05/20 04:16:58;;;;;;;6.38;3.42;;;;;;;17.18;90.81;96853.16;5066005;28;20196;-90
2022/05/20 04:19:26;;;;;;;5.13;2.97;;;;;;;17.39;91.43;96842.38;5066373;28;20210;-90
2022/05/20 04:21:56;;;;;;;12.52;4.00;;;;;;;17.32;92.50;96839.72;5066245;28;20231;-90
2022/05/20 04:24:22;;;;;;;5.13;3.05;;;;;;;17.25;91.50;96848.72;5067523;28;20434;-90
2022/05/20 04:26:49;;;;;;;5.38;3.15;;;;;;;16.91;92.91;96840.81;5067277;28;20215;-90
2022/05/20 04:29:16;;;;;;;10.60;3.75;;;;;;;16.96;94.14;96850.88;5066972;28;20208;-90
2022/05/20 04:31:46;;;;;;;5.30;3.53;;;;;;;17.18;93.79;96843.34;5067265;28;20648;-90
2022/05/20 04:34:12;;;;;;;12.88;3.83;;;;;;;17.37;92.40;96841.75;5066830;28;20227;-90
2022/05/20 04:36:39;;;;;;;7.40;4.00;;;;;;;17.47;93.44;96834.97;5067227;28;20681;-90
2022/05/20 04:39:07;;;;;;;9.90;3.75;;;;;;;17.51;94.66;96838.06;5066894;28;20577;-90
2022/05/20 04:47:05;;;;;;;13.23;4.30;;;;;;;17.59;94.92;96849.34;5066279;28;20203;-91
2022/05/20 04:49:33;;;;;;;8.02;3.75;;;;;;;17.66;93.97;96839.50;5066594;28;20204;-90
2022/05/20 04:52:01;;;;;;;9.45;4.18;;;;;;;17.72;93.95;96841.34;5065946;28;20569;-90
2022/05/20 04:57:29;;;;;;;8.07;3.75;;;;;;;17.93;94.48;96843.78;5066105;28;20745;-91
2022/05/20 05:00:00;;;;;;;11.00;4.03;;;;;;;17.96;95.03;96843.34;5068041;28;20201;-91
2022/05/20 05:02:27;;;;;;;6.05;3.95;;;;;;;17.77;96.21;96844.22;5065982;28;20207;-90
2022/05/20 05:04:54;;;;;;;7.65;4.20;;;;;;;17.93;95.77;96841.09;5066183;28;20270;-91
2022/05/20 05:07:20;;;;;;;8.32;4.43;;;;;;;18.00;95.56;96841.94;5065768;28;20204;-91
2022/05/20 05:09:48;;;;;;;9.45;4.30;;;;;;;18.19;95.40;96844.59;5065979;28;20209;-91
2022/05/20 05:12:15;;;;;;;11.85;4.50;;;;;;;18.33;94.50;96842.69;5066214;28;20228;-91
2022/05/20 05:14:44;;;;;;;12.23;4.30;;;;;;;18.40;95.52;96834.44;5066441;28;20407;-91
2022/05/20 05:17:13;;;;;;;10.85;4.28;;;;;;;18.56;94.78;96844.66;5066485;28;20201;-90
2022/05/20 05:19:44;;;;;;;11.77;4.72;;;;;;;18.77;92.99;96841.69;5067660;28;20721;-90
2022/05/20 05:22:11;;;;;;;8.57;4.82;;;;;;;18.80;91.53;96845.78;5071405;28;20227;-91
2022/05/20 05:24:39;;;;;;;12.23;6.22;;;;;;;19.00;90.40;96839.28;5070460;28;20315;-90
2022/05/20 05:27:07;;;;;;;16.63;7.22;;;;;;;19.12;89.23;96838.44;5070583;28;20657;-90
2022/05/20 05:29:36;;;;;;;16.08;6.85;;;;;;;18.89;90.36;96848.00;5072698;28;20204;-91
2022/05/20 05:32:02;;;;;;;18.92;8.32;;;;;;;19.19;88.63;96843.75;5072573;28;20304;-91
2022/05/20 05:34:29;;;;;;;17.65;7.60;;;;;;;19.26;87.05;96844.53;5072214;28;20213;-91
2022/05/20 05:36:55;;;;;;;18.02;7.55;;;;;;;19.42;87.32;96841.31;5071493;28;20223;-91
2022/05/20 05:39:22;;;;;;;19.00;7.10;;;;;;;19.59;86.66;96845.94;5071366;28;20209;-91
2022/05/20 05:41:49;;;;;;;18.48;7.35;;;;;;;19.71;84.06;96839.63;5070951;28;20224;-90
2022/05/20 05:44:17;;;;;;;17.48;7.30;;;;;;;19.97;83.90;96850.16;5071710;28;20583;-91
2022/05/20 05:46:43;;;;;;;12.70;6.68;;;;;;;19.73;84.68;96853.63;5073363;28;20245;-91
2022/05/20 05:49:10;;;;;;;12.68;6.13;;;;;;;19.51;84.64;96853.38;5074088;28;20656;-90
2022/05/20 05:51:37;;;;;;;13.20;5.47;;;;;;;19.61;85.69;96855.38;5073683;28;20609;-90
2022/05/20 05:54:03;;;;;;;11.07;5.25;;;;;;;19.89;84.84;96853.03;5072405;28;20617;-91
2022/05/20 05:56:29;;;;;;;7.00;4.68;;;;;;;20.07;83.17;96849.63;5071342;28;20207;-90
2022/05/20 05:58:57;;;;;;;9.23;4.85;;;;;;;20.14;82.60;96845.03;5072374;28;20200;-90
2022/05/20 06:01:25;;;;;;;10.77;4.95;;;;;;;20.32;81.48;96840.53;5071870;28;20220;-91
2022/05/20 06:03:51;;;;;;;12.18;5.18;;;;;;;20.28;81.36;96847.38;5071296;28;20205;-90
2022/05/20 06:06:18;;;;;;;7.95;4.97;;;;;;;20.19;82.30;96843.34;5071450;28;20299;-91
2022/05/20 06:08:44;;;;;;;11.60;5.10;;;;;;;20.45;81.09;96843.84;5072756;28;20679;-90
2022/05/20 06:11:11;;;;;;;9.43;5.10;;;;;;;20.59;80.73;96836.50;5071380;28;20220;-90
2022/05/20 06:13:37;;;;;;;8.90;5.20;;;;;;;20.54;81.03;96839.03;5070610;28;20201;-90
2022/05/20 06:16:05;;;;;;;8.48;4.82;;;;;;;20.61;80.27;96837.06;5070875;28;20697;-90
2022/05/20 06:18:33;;;;;;;7.57;4.72;;;;;;;20.95;79.65;96832.75;5071572;28;20196;-90
2022/05/20 06:21:00;;;;;;;6.78;4.80;;;;;;;20.90;80.54;96829.09;5071293;28;20252;-90
2022/05/20 06:23:26;;;;;;;10.27;5.18;;;;;;;20.95;79.25;96832.75;5070491;28;20208;-91
2022/05/20 06:25:53;;;;;;;8.10;4.72;;;;;;;20.94;79.83;96828.44;5072029;28;20228;-90
2022/05/20 06:28:20;;;;;;;7.97;4.93;;;;;;;20.93;81.11;96821.44;5071773;28;20230;-90
2022/05/20 06:30:47;;;;;;;10.75;5.13;;;;;;;21.05;79.83;96827.69;5069688;28;20231;-89
2022/05/20 06:33:13;;;;;;;8.60;4.85;;;;;;;21.17;80.30;96815.13;5070272;28;20205;-90
2022/05/20 06:41:10;;;;;;;6.53;4.32;;;;;;;21.66;80.23;96812.91;5070363;28;20722;-89
2022/05/20 06:43:37;;;;;;;9.63;4.13;;;;;;;21.51;77.16;96809.88;5072322;28;20208;-90
2022/05/20 06:46:05;;;;;;;6.53;4.00;;;;;;;21.69;77.18;96806.28;5070892;28;20235;-89
2022/05/20 06:48:49;;;;;;;6.30;3.38;;;;;;;21.91;75.77;96810.84;5073490;28;20197;-89
2022/05/20 06:51:18;;;;;;;6.00;3.67;;;;;;;21.91;75.07;96815.41;5072500;28;20228;-90
2022/05/20 06:53:46;;;;;;;6.75;3.60;;;;;;;22.12;74.50;96819.16;5071845;28;20222;-89
2022/05/20 06:56:15;;;;;;;6.18;3.80;;;;;;;22.22;75.31;96819.38;5071874;28;20283;-89
2022/05/20 06:58:42;;;;;;;10.27;3.47;;;;;;;22.29;76.04;96824.66;5070156;28;20205;-91
2022/05/20 07:01:08;;;;;;;6.65;4.03;;;;;;;22.11;73.66;96817.50;5072058;28;20221;-89
2022/05/20 07:03:35;;;;;;;5.13;3.50;;;;;;;22.28;73.09;96818.44;5073003;28;20322;-89
2022/05/20 07:06:03;;;;;;;7.60;3.58;;;;;;;22.54;72.86;96817.13;5071115;28;20220;-89
2022/05/20 07:08:31;;;;;;;5.20;3.08;;;;;;;22.51;71.16;96818.41;5071095;28;20196;-90
2022/05/20 07:10:57;;;;;;;7.47;3.40;;;;;;;22.67;71.32;96817.69;5071325;28;20244;-89
2022/05/20 07:13:24;;;;;;;7.03;3.30;;;;;;;22.91;71.62;96813.84;5070511;28;20208;-90
2022/05/20 07:15:50;;;;;;;4.95;3.65;;;;;;;23.00;70.97;96812.44;5069777;28;20199;-89
2022/05/20 07:18:17;;;;;;;6.85;3.17;;;;;;;22.92;69.33;96815.50;5071701;28;20203;-89
2022/05/20 07:20:43;;;;;;;4.90;2.78;;;;;;;22.93;68.74;96803.69;5071338;28;20230;-89
2022/05/20 07:23:10;;;;;;;6.05;2.75;;;;;;;23.00;67.53;96805.22;5071062;28;20199;-89
2022/05/20 07:25:38;;;;;;;5.22;2.90;;;;;;;23.14;67.12;96809.25;5072132;28;20224;-90
2022/05/20 07:28:06;;;;;;;5.90;3.47;;;;;;;23.32;68.08;96809.84;5070121;28;20208;-90
2022/05/20 07:30:33;;;;;;;5.38;3.30;;;;;;;23.40;68.47;96804.06;5071176;28;20745;-89
2022/05/20 07:32:59;;;;;;;5.78;3.15;;;;;;;23.60;69.15;96799.03;5069940;28;20215;-91
2022/05/20 07:35:26;;;;;;;5.47;3.13;;;;;;;23.79;69.12;96797.78;5068602;28;20558;-90
2022/05/20 07:37:53;;;;;;;6.70;3.33;;;;;;;23.91;68.26;96801.19;5067901;28;20201;-90
2022/05/20 07:40:20;;;;;;;9.50;3.95;;;;;;;23.93;67.41;96799.06;5069045;28;20224;-91
2022/05/20 07:42:49;;;;;;;4.20;2.92;;;;;;;24.10;66.99;96799.84;5069244;28;20227;-90
2022/05/20 07:45:16;;;;;;;5.10;3.53;;;;;;;24.29;67.84;96803.91;5067885;28;20228;-90
2022/05/20 07:47:43;;;;;;;5.30;3.15;;;;;;;23.88;66.05;96801.69;5069163;28;20291;-90
2022/05/20 07:50:11;;;;;;;5.03;3.58;;;;;;;24.18;66.12;96802.13;5068705;28;20549;-91
2022/05/20 07:55:25;;;;;;;8.05;3.50;;;;;;;24.72;64.29;96805.59;5069490;28;20700;-91
2022/05/20 07:57:54;;;;;;;7.43;3.42;;;;;;;24.90;65.01;96802.56;5068840;28;20206;-90
2022/05/20 08:00:22;;;;;;;4.47;2.92;;;;;;;24.91;65.06;96803.38;5067740;28;20220;-90
2022/05/20 08:02:53;;;;;;;5.82;3.00;;;;;;;25.02;64.46;96795.16;5068366;28;20258;-90
2022/05/20 08:05:21;;;;;;;4.82;2.97;;;;;;;25.19;65.91;96795.94;5069058;28;20234;-90
2022/05/20 08:07:49;;;;;;;5.70;3.25;;;;;;;25.00;64.52;96791.91;5068877;28;20615;-91
2022/05/20 08:10:19;;;;;;;6.25;2.97;;;;;;;25.33;63.31;96791.72;5068891;28;20220;-91
2022/05/20 08:12:46;;;;;;;6.47;3.50;;;;;;;25.36;62.27;96802.03;5067047;28;20373;-90
2022/05/20 08:15:15;;;;;;;5.35;2.80;;;;;;;25.58;61.60;96784.66;5068739;28;20533;-90
2022/05/20 08:17:43;;;;;;;5.35;2.78;;;;;;;25.54;61.73;96780.06;5068212;28;20215;-90
2022/05/20 08:20:13;;;;;;;3.13;2.65;;;;;;;25.56;59.36;96786.00;5068569;28;20196;-91
2022/05/20 08:22:40;;;;;;;6.05;2.80;;;;;;;25.34;59.98;96793.34;5069675;28;20196;-90
2022/05/20 08:25:07;;;;;;;4.78;2.90;;;;;;;25.42;61.10;96784.78;5068781;28;20231;-90
2022/05/20 08:27:33;;;;;;;6.10;3.03;;;;;;;25.79;62.24;96781.13;5069184;28;20223;-90
2022/05/20 08:30:06;;;;;;;7.32;2.90;;;;;;;26.20;61.12;96780.31;5069222;28;20774;-90
2022/05/20 08:32:34;;;;;;;3.40;2.50;;;;;;;26.10;58.81;96772.94;5069224;28;20196;-90
2022/05/20 08:35:03;;;;;;;7.40;2.70;;;;;;;25.99;59.30;96773.97;5071159;28;20649;-91
2022/05/20 08:37:29;;;;;;;9.48;3.72;;;;;;;26.08;58.07;96769.72;5070371;28;20196;-90
2022/05/20 08:39:56;;;;;;;6.68;3.10;;;;;;;26.17;60.41;96762.75;5070798;28;20266;-91
2022/05/20 08:42:28;;;;;;;5.60;2.90;;;;;;;26.25;57.46;96759.53;5069688;28;20195;-90
2022/05/20 08:44:55;;;;;;;4.45;2.63;;;;;;;26.30;58.72;96751.47;5069736;28;20224;-90
2022/05/20 08:47:24;;;;;;;3.83;2.63;;;;;;;26.58;55.99;96757.31;5070350;28;20211;-90
2022/05/20 08:49:55;;;;;;;6.28;2.80;;;;;;;26.40;55.58;96754.25;5070830;28;20206;-91
2022/05/20 08:52:21;;;;;;;3.38;2.45;;;;;;;26.24;56.06;96743.59;5070122;28;20205;-90
2022/05/20 08:54:48;;;;;;;5.45;2.95;;;;;;;26.66;57.42;96745.97;5070561;28;20664;-88
2022/05/20 08:57:21;;;;;;;4.40;2.50;;;;;;;26.66;54.40;96745.19;5074527;28;20653;-90
2022/05/20 08:59:48;;;;;;;4.18;2.72;;;;;;;26.84;55.36;96742.78;5075231;28;20193;-91
2022/05/20 09:02:14;;;;;;;5.43;2.85;;;;;;;26.81;53.82;96740.63;5073369;28;20600;-91
2022/05/20 09:04:41;;;;;;;4.63;2.78;;;;;;;27.25;55.76;96747.25;5073848;28;20205;-92
2022/05/20 09:07:12;;;;;;;5.40;2.83;;;;;;;27.29;54.02;96732.91;5074440;28;20202;-91
2022/05/20 09:09:45;;;;;;;6.13;2.78;;;;;;;27.58;52.94;96739.44;5073660;28;20211;-90
2022/05/20 09:12:26;;;;;;;4.65;2.75;;;;;;;27.69;53.84;96735.66;5074501;28;20213;-91
2022/05/20 09:17:46;;;;;;;5.28;2.80;;;;;;;27.63;52.81;96728.63;5073808;28;20204;-90
2022/05/20 09:20:17;;;;;;;7.18;2.75;;;;;;;27.88;53.26;96729.41;5073098;28;20221;-90
2022/05/20 09:22:55;;;;;;;3.00;2.38;;;;;;;27.92;52.28;96725.06;5073527;28;20189;-91
2022/05/20 09:25:26;;;;;;;6.15;3.00;;;;;;;28.13;54.32;96725.84;5073173;28;20227;-91
2022/05/20 09:27:57;;;;;;;6.97;2.88;;;;;;;27.82;52.33;96714.25;5074366;28;20185;-90
2022/05/20 09:30:24;;;;;;;6.25;2.78;;;;;;;27.99;52.57;96717.50;5073729;28;20510;-90
2022/05/20 09:33:01;;;;;;;6.40;3.28;;;;;;;28.31;51.93;96712.56;5073825;28;20204;-90
2022/05/20 09:35:35;;;;;;;3.90;2.55;;;;;;;28.37;52.23;96706.84;5073873;28;20215;-91
2022/05/20 09:38:10;;;;;;;6.22;3.03;;;;;;;28.41;51.88;96716.03;5074076;28;20205;-91
2022/05/20 09:40:41;;;;;;;5.18;2.60;;;;;;;28.37;50.70;96709.56;5073825;28;20232;-91
2022/05/20 09:43:11;;;;;;;4.63;2.78;;;;;;;28.36;51.02;96701.69;5074219;28;20232;-89
2022/05/20 09:45:43;;;;;;;5.05;2.85;;;;;;;28.50;52.08;96695.41;5073373;28;20216;-90
2022/05/20 09:48:10;;;;;;;6.45;3.00;;;;;;;28.52;54.15;96693.19;5073237;28;20200;-91
2022/05/20 09:50:38;;;;;;;4.47;2.90;;;;;;;28.41;49.73;96693.53;5072246;28;20220;-91
2022/05/20 09:53:14;;;;;;;5.18;2.85;;;;;;;28.41;50.47;96686.22;5072307;28;20243;-91
2022/05/20 09:55:43;;;;;;;4.47;3.35;;;;;;;28.45;52.37;96687.28;5072901;28;20317;-90
2022/05/20 09:58:15;;;;;;;5.50;3.33;;;;;;;28.75;51.28;96681.72;5071744;28;20204;-90
2022/05/20 10:00:47;;;;;;;5.68;2.80;;;;;;;28.69;50.66;96676.56;5071812;28;20228;-90
2022/05/20 10:03:19;;;;;;;5.30;3.20;;;;;;;28.76;49.63;96677.94;5071930;28;20189;-90
2022/05/20 10:05:53;;;;;;;8.00;3.65;;;;;;;29.19;53.25;96671.69;5071350;28;20219;-91
2022/05/20 10:08:25;;;;;;;5.20;3.08;;;;;;;29.53;51.76;96672.53;5072772;28;20191;-91
2022/05/20 10:11:01;;;;;;;4.97;3.30;;;;;;;29.73;50.51;96662.28;5070977;28;20221;-89
2022/05/20 10:13:41;;;;;;;5.15;3.35;;;;;;;29.89;50.73;96661.88;5071640;28;20548;-88
2022/05/20 10:16:17;;;;;;;7.70;3.50;;;;;;;30.04;50.49;96656.28;5072337;28;20210;-89
2022/05/20 10:18:51;;;;;;;7.95;3.38;;;;;;;30.22;49.30;96650.09;5072077;28;20199;-88
2022/05/20 10:21:32;;;;;;;5.75;3.30;;;;;;;29.88;47.33;96649.38;5072470;28;20583;-88
2022/05/20 10:24:14;;;;;;;4.38;3.03;;;;;;;30.27;49.95;96639.16;5072347;28;20188;-91
2022/05/20 10:26:47;;;;;;;5.75;3.30;;;;;;;30.33;48.70;96646.16;5071407;28;20700;-91
2022/05/20 10:32:35;;;;;;;6.00;3.35;;;;;;;30.56;49.06;96634.44;5015124;28;20218;-88
2022/05/20 10:35:05;;;;;;;4.90;3.03;;;;;;;30.55;47.74;96628.22;5072568;28;20668;-91
2022/05/20 10:37:51;;;;;;;11.80;3.55;;;;;;;30.78;48.33;96626.53;5071294;28;20552;-91
2022/05/20 10:40:38;;;;;;;6.07;3.17;;;;;;;30.96;46.01;96619.19;5071898;28;20783;-92
2022/05/20 10:43:26;;;;;;;5.82;2.70;;;;;;;31.19;47.30;96623.75;5071136;28;20189;-92
2022/05/20 10:49:06;;;;;;;6.13;3.42;;;;;;;31.60;45.46;96619.25;5073666;28;20219;-91
2022/05/20 10:51:54;;;;;;;6.72;3.13;;;;;;;31.44;44.82;96611.59;5072523;28;20334;-91
2022/05/20 10:54:39;;;;;;;4.82;3.22;;;;;;;31.57;46.33;96615.22;5073357;28;20200;-91
2022/05/20 10:57:27;;;;;;;7.25;3.50;;;;;;;31.67;47.18;96604.13;5071624;28;20180;-92
2022/05/20 11:00:03;;;;;;;7.85;2.90;;;;;;;31.52;43.91;96603.59;5072804;28;20192;-88
2022/05/20 11:02:52;;;;;;;8.07;2.83;;;;;;;31.15;41.58;96595.47;5072563;28;20210;-90
2022/05/20 11:05:41;;;;;;;6.18;2.95;;;;;;;31.44;42.11;96592.53;5073033;28;20207;-88
2022/05/20 11:08:22;;;;;;;7.57;2.95;;;;;;;31.71;42.67;96590.72;5072724;28;20640;-88
2022/05/20 11:11:03;;;;;;;5.40;2.80;;;;;;;31.88;44.84;96577.31;5072950;28;20224;-88
2022/05/20 11:13:57;;;;;;;7.18;2.83;;;;;;;32.01;41.37;96571.06;5073058;28;20177;-90
2022/05/20 11:16:50;;;;;;;3.83;2.63;;;;;;;31.59;39.52;96568.59;5073382;28;20185;-91
2022/05/20 11:19:34;;;;;;;8.23;2.90;;;;;;;31.73;39.06;96564.75;5072935;28;20195;-91
2022/05/20 11:22:19;;;;;;;4.32;2.38;;;;;;;31.46;36.74;96563.88;5072772;28;20226;-87
2022/05/20 11:25:01;;;;;;;6.45;2.60;;;;;;;32.05;39.71;96561.97;5073507;28;20195;-87
2022/05/20 11:27:58;;;;;;;4.40;2.38;;;;;;;31.97;38.80;96559.13;5072799;28;20219;-88
2022/05/20 11:30:39;;;;;;;7.28;2.40;;;;;;;31.63;36.46;96561.41;5069686;28;20224;-87
2022/05/20 11:33:20;;;;;;;5.43;2.40;;;;;;;32.17;37.59;96556.81;5073389;28;20527;-89
2022/05/20 11:36:15;;;;;;;6.25;2.50;;;;;;;31.60;37.93;96568.28;5072403;28;20181;-89
2022/05/20 11:39:19;;;;;;;4.40;2.45;;;;;;;31.92;37.10;96554.56;5072888;28;20532;-90
2022/05/20 11:41:56;;;;;;;6.68;2.00;;;;;;;31.75;37.82;96567.19;5072035;28;20230;-91
2022/05/20 11:44:52;;;;;;;5.63;2.60;;;;;;;31.72;37.42;96554.16;5072548;28;20538;-90
2022/05/20 11:47:54;;;;;;;4.35;2.70;;;;;;;31.80;36.70;96553.47;5072112;28;20209;-90
2022/05/20 11:50:38;;;;;;;7.18;2.80;;;;;;;31.78;39.16;96561.13;5071385;28;20757;-90
2022/05/20 11:53:12;;;;;;;6.82;2.28;;;;;;;31.74;37.28;96551.94;5072261;28;20215;-90
2022/05/20 11:55:48;;;;;;;5.43;2.55;;;;;;;31.79;37.34;96558.09;5072365;28;20236;-91
2022/05/20 11:58:23;;;;;;;3.38;2.15;;;;;;;31.82;37.69;96556.69;5071972;28;20264;-89
2022/05/20 12:00:51;;;;;;;8.18;2.92;;;;;;;31.08;38.52;96546.03;5072307;28;20224;-89
2022/05/20 12:03:22;;;;;;;6.22;2.55;;;;;;;31.15;39.62;96535.56;5071817;28;20216;-90
2022/05/20 12:05:51;;;;;;;7.13;2.70;;;;;;;31.37;38.67;96524.81;5071516;28;20184;-91
2022/05/20 12:08:53;;;;;;;6.20;2.47;;;;;;;31.58;37.59;96526.06;5072201;28;20204;-90
2022/05/20 12:11:24;;;;;;;4.68;2.53;;;;;;;32.05;37.97;96506.63;5072779;28;20241;-91
2022/05/20 12:14:05;;;;;;;7.75;2.17;;;;;;;32.13;37.11;96512.97;5071580;28;20205;-87
2022/05/20 12:16:33;;;;;;;5.60;2.80;;;;;;;32.21;36.88;96495.88;5071904;28;20184;-88
2022/05/20 12:24:38;;;;;;;8.18;2.83;;;;;;;32.66;38.21;96464.84;5072024;28;20664;-87
2022/05/20 12:27:11;;;;;;;6.28;2.55;;;;;;;32.51;36.21;96467.97;5071435;28;20231;-88